Time;durP1;ratioP1;P1;durP2;ratioP2;P2;SDS_P1;SDS_P2;PMS_P1;PMS_P2;Temp;Humidity;BMP_temperature;BMP_pressure;BME280_temperature;BME280_humidity;BME280_pressure;Samples;Min_cycle;Max_cycle;Signal;HPM_P1;HPM_P2
2020/12/31 00:02:02;;;;;;;9.55;7.15;;;3.20;99.90;;;;;;5093238;28;20310;-40
2020/12/31 00:04:29;;;;;;;9.47;7.93;;;3.30;99.90;;;;;;5093304;28;20309;-41
2020/12/31 00:06:56;;;;;;;12.00;9.43;;;3.40;99.90;;;;;;5093111;28;20254;-40
2020/12/31 00:09:24;;;;;;;9.10;8.15;;;3.40;99.90;;;;;;5092852;28;20688;-40
2020/12/31 00:11:52;;;;;;;9.32;8.20;;;3.40;99.90;;;;;;5092879;28;20234;-40
2020/12/31 00:14:19;;;;;;;9.13;7.57;;;3.40;99.90;;;;;;5093016;28;20637;-41
2020/12/31 00:16:46;;;;;;;10.90;8.63;;;3.40;99.90;;;;;;5093237;28;20297;-40
2020/12/31 00:19:16;;;;;;;12.55;9.18;;;3.40;99.90;;;;;;5093260;28;20209;-40
2020/12/31 00:21:43;;;;;;;13.60;8.43;;;3.30;99.90;;;;;;5092989;28;20230;-40
2020/12/31 00:24:10;;;;;;;15.10;9.82;;;3.30;99.90;;;;;;5092877;28;20210;-40
2020/12/31 00:26:37;;;;;;;10.70;8.67;;;3.30;99.90;;;;;;5092586;28;20300;-40
2020/12/31 00:29:06;;;;;;;8.30;6.78;;;3.30;99.90;;;;;;5092627;28;20727;-40
2020/12/31 00:31:33;;;;;;;10.70;7.67;;;3.30;99.90;;;;;;5092976;28;20207;-41
2020/12/31 00:34:00;;;;;;;11.45;8.05;;;3.20;99.90;;;;;;5091729;28;20257;-40
2020/12/31 00:36:27;;;;;;;10.73;7.85;;;3.20;99.90;;;;;;5092737;28;20226;-41
2020/12/31 00:38:54;;;;;;;12.95;9.48;;;3.30;99.90;;;;;;5092715;28;20354;-40
2020/12/31 00:41:21;;;;;;;11.60;7.83;;;3.30;99.90;;;;;;5092437;28;20234;-40
2020/12/31 00:43:49;;;;;;;8.80;6.68;;;3.30;99.90;;;;;;5092346;28;20718;-40
2020/12/31 00:46:17;;;;;;;7.78;6.82;;;3.30;99.90;;;;;;5092491;28;20203;-41
2020/12/31 00:48:44;;;;;;;8.95;6.70;;;3.20;99.90;;;;;;5092416;28;20226;-41
2020/12/31 00:51:12;;;;;;;12.40;8.90;;;3.20;99.90;;;;;;5092384;28;20673;-41
2020/12/31 00:53:40;;;;;;;9.73;7.00;;;3.20;99.90;;;;;;5092347;28;20206;-40
2020/12/31 00:56:07;;;;;;;8.77;7.03;;;3.30;99.90;;;;;;5092315;28;20213;-41
2020/12/31 00:58:34;;;;;;;9.63;8.02;;;3.30;99.90;;;;;;5092307;28;20617;-41
2020/12/31 01:01:01;;;;;;;7.38;6.25;;;3.30;99.90;;;;;;5092164;28;20245;-41
2020/12/31 01:03:29;;;;;;;8.10;7.30;;;3.30;99.90;;;;;;5092235;28;20246;-41
2020/12/31 01:05:56;;;;;;;7.00;6.40;;;3.30;99.90;;;;;;5092332;28;20725;-41
2020/12/31 01:08:23;;;;;;;6.77;6.17;;;3.30;99.90;;;;;;5092065;28;20259;-41
2020/12/31 01:10:50;;;;;;;6.57;5.93;;;3.30;99.90;;;;;;5092133;28;20662;-40
2020/12/31 01:13:17;;;;;;;6.37;5.77;;;3.30;99.90;;;;;;5092374;28;20210;-41
2020/12/31 01:15:44;;;;;;;6.83;6.13;;;3.30;99.90;;;;;;5092004;28;20296;-41
2020/12/31 01:18:13;;;;;;;6.38;5.78;;;3.30;99.90;;;;;;5092207;28;20207;-40
2020/12/31 01:20:41;;;;;;;8.18;6.15;;;3.30;99.90;;;;;;5092211;28;20302;-40
2020/12/31 01:23:08;;;;;;;8.43;6.38;;;3.30;99.90;;;;;;5091946;28;20230;-40
2020/12/31 01:25:35;;;;;;;6.07;5.47;;;3.20;99.90;;;;;;5092268;28;20207;-41
2020/12/31 01:28:03;;;;;;;6.73;6.13;;;3.20;99.90;;;;;;5092077;28;20317;-40
2020/12/31 01:30:30;;;;;;;5.60;5.10;;;3.20;99.90;;;;;;5092061;28;20241;-40
2020/12/31 01:32:58;;;;;;;6.60;6.00;;;3.10;99.90;;;;;;5091900;28;20278;-40
2020/12/31 01:35:27;;;;;;;6.27;5.63;;;3.00;99.90;;;;;;5091880;28;20210;-40
2020/12/31 01:37:54;;;;;;;7.40;6.70;;;3.00;99.90;;;;;;5092145;28;20248;-39
2020/12/31 01:40:21;;;;;;;8.30;7.13;;;3.00;99.90;;;;;;5092065;28;20204;-39
2020/12/31 01:42:48;;;;;;;9.03;6.93;;;2.90;99.90;;;;;;5091866;28;20211;-43
2020/12/31 01:45:15;;;;;;;19.88;13.98;;;2.90;99.90;;;;;;5094555;28;20691;-39
2020/12/31 01:47:43;;;;;;;7.77;6.80;;;2.80;99.90;;;;;;5095852;28;20222;-39
2020/12/31 01:50:12;;;;;;;6.60;5.97;;;2.80;99.90;;;;;;5096118;28;20264;-39
2020/12/31 01:52:39;;;;;;;7.35;6.00;;;2.70;99.90;;;;;;5095916;28;20210;-39
2020/12/31 01:55:07;;;;;;;7.82;6.20;;;2.60;99.90;;;;;;5095834;28;20314;-39
2020/12/31 01:57:35;;;;;;;7.05;6.35;;;2.50;99.90;;;;;;5095697;28;20293;-39
2020/12/31 02:00:03;;;;;;;7.72;6.53;;;2.40;99.90;;;;;;5095672;28;20414;-40
2020/12/31 02:02:30;;;;;;;8.45;7.47;;;2.30;99.90;;;;;;5095513;28;20740;-40
2020/12/31 02:04:58;;;;;;;7.18;5.93;;;2.30;99.90;;;;;;5095792;28;20206;-41
2020/12/31 02:07:25;;;;;;;6.07;5.50;;;2.20;99.90;;;;;;5095397;28;20660;-39
2020/12/31 02:09:51;;;;;;;8.20;7.40;;;2.20;99.90;;;;;;5095118;28;20752;-40
2020/12/31 02:12:20;;;;;;;6.30;5.78;;;2.20;99.90;;;;;;5095569;28;20213;-39
2020/12/31 02:14:48;;;;;;;8.75;6.50;;;2.20;99.90;;;;;;5095425;28;20539;-39
2020/12/31 02:17:15;;;;;;;7.18;6.47;;;2.20;99.90;;;;;;5095204;28;20230;-39
2020/12/31 02:19:42;;;;;;;8.55;6.72;;;2.30;99.90;;;;;;5095410;28;20245;-40
2020/12/31 02:22:14;;;;;;;6.50;5.90;;;2.20;99.90;;;;;;5095288;28;20344;-40
2020/12/31 02:24:42;;;;;;;8.98;7.43;;;2.20;99.90;;;;;;5095154;28;20242;-39
2020/12/31 02:27:09;;;;;;;7.97;6.80;;;2.20;99.90;;;;;;5095086;28;20233;-40
2020/12/31 02:29:36;;;;;;;6.60;6.00;;;2.30;99.90;;;;;;5095098;28;20238;-40
2020/12/31 02:32:04;;;;;;;7.93;6.85;;;2.30;99.90;;;;;;5094967;28;20210;-39
2020/12/31 02:34:31;;;;;;;6.83;6.00;;;2.20;99.90;;;;;;5095151;28;20211;-39
2020/12/31 02:36:58;;;;;;;11.03;9.70;;;2.20;99.90;;;;;;5094881;28;20203;-39
2020/12/31 02:39:26;;;;;;;8.93;7.90;;;2.20;99.90;;;;;;5095081;28;20580;-39
2020/12/31 02:41:53;;;;;;;6.22;5.63;;;2.20;99.90;;;;;;5094884;28;20260;-39
2020/12/31 02:44:20;;;;;;;8.13;7.33;;;2.20;99.90;;;;;;5094767;28;20613;-39
2020/12/31 02:46:47;;;;;;;18.47;14.77;;;2.20;99.90;;;;;;5094912;28;20207;-40
2020/12/31 02:49:14;;;;;;;12.35;9.52;;;2.20;99.90;;;;;;5094727;28;20206;-39
2020/12/31 02:51:41;;;;;;;7.47;6.70;;;2.20;99.90;;;;;;5094715;28;20730;-39
2020/12/31 02:54:08;;;;;;;11.77;8.23;;;2.10;99.90;;;;;;5094789;28;20206;-39
2020/12/31 02:56:36;;;;;;;19.63;15.10;;;2.10;99.90;;;;;;5093830;28;20293;-40
2020/12/31 02:59:03;;;;;;;8.48;7.05;;;2.10;99.90;;;;;;5094987;28;20293;-40
2020/12/31 03:01:30;;;;;;;6.40;5.80;;;2.10;99.90;;;;;;5094997;28;20234;-40
2020/12/31 03:03:58;;;;;;;8.15;7.35;;;2.10;99.90;;;;;;5094747;28;20624;-40
2020/12/31 03:06:25;;;;;;;7.05;6.38;;;2.10;99.90;;;;;;5094548;28;20253;-40
2020/12/31 03:08:51;;;;;;;11.38;9.73;;;2.00;99.90;;;;;;5094348;28;20321;-40
2020/12/31 03:11:20;;;;;;;11.13;9.40;;;2.00;99.90;;;;;;5094247;28;20270;-39
2020/12/31 03:13:48;;;;;;;23.20;17.70;;;1.90;99.90;;;;;;5094599;28;20246;-41
2020/12/31 03:16:16;;;;;;;27.70;21.10;;;1.90;99.90;;;;;;5094384;28;20271;-40
2020/12/31 03:18:43;;;;;;;26.48;21.00;;;1.90;99.90;;;;;;5094466;28;20267;-40
2020/12/31 03:21:10;;;;;;;10.23;9.13;;;1.80;99.90;;;;;;5094065;28;20681;-41
2020/12/31 03:23:38;;;;;;;12.02;9.90;;;1.80;99.90;;;;;;5094225;28;20297;-40
2020/12/31 03:26:06;;;;;;;21.13;16.97;;;1.90;99.90;;;;;;5094372;28;20221;-39
2020/12/31 03:28:33;;;;;;;15.30;13.02;;;1.90;99.90;;;;;;5093997;28;20317;-40
2020/12/31 03:31:01;;;;;;;11.20;10.07;;;1.90;99.90;;;;;;5093781;28;20661;-40
2020/12/31 03:33:28;;;;;;;10.38;9.30;;;1.90;99.90;;;;;;5093949;28;20213;-40
2020/12/31 03:35:55;;;;;;;9.10;8.20;;;1.90;99.90;;;;;;5093962;28;20203;-40
2020/12/31 03:38:22;;;;;;;10.57;9.47;;;1.90;99.90;;;;;;5093748;28;20244;-40
2020/12/31 03:40:49;;;;;;;8.63;7.30;;;1.90;99.90;;;;;;5093707;28;20232;-40
2020/12/31 03:43:18;;;;;;;7.28;6.57;;;1.90;99.90;;;;;;5093767;28;20673;-40
2020/12/31 03:45:44;;;;;;;7.97;7.18;;;1.90;99.90;;;;;;5093708;28;20763;-40
2020/12/31 03:48:12;;;;;;;8.90;7.50;;;2.00;99.90;;;;;;5093646;28;20308;-40
2020/12/31 03:50:40;;;;;;;10.03;8.30;;;2.00;99.90;;;;;;5093574;28;20211;-40
2020/12/31 03:53:07;;;;;;;8.88;7.32;;;2.00;99.90;;;;;;5093586;28;20203;-41
2020/12/31 03:55:34;;;;;;;8.30;7.60;;;2.00;99.90;;;;;;5093605;28;20666;-40
2020/12/31 03:58:01;;;;;;;8.48;7.68;;;1.90;99.90;;;;;;5093577;28;20260;-41
2020/12/31 04:00:28;;;;;;;8.02;7.22;;;1.90;99.90;;;;;;5093405;28;20256;-40
2020/12/31 04:02:55;;;;;;;9.10;7.23;;;1.90;99.90;;;;;;5093440;28;20309;-40
2020/12/31 04:05:23;;;;;;;8.10;6.93;;;1.90;99.90;;;;;;5093370;28;20206;-40
2020/12/31 04:07:50;;;;;;;7.45;6.75;;;1.90;99.90;;;;;;5093251;28;20764;-39
2020/12/31 04:10:17;;;;;;;7.80;6.97;;;1.90;99.90;;;;;;5093284;28;20347;-40
2020/12/31 04:12:44;;;;;;;8.32;7.53;;;1.80;99.90;;;;;;5093337;28;20230;-39
2020/12/31 04:15:11;;;;;;;8.55;7.75;;;1.80;99.90;;;;;;5093247;28;20210;-39
2020/12/31 04:17:38;;;;;;;7.57;6.93;;;1.80;99.90;;;;;;5093093;28;20236;-39
2020/12/31 04:20:06;;;;;;;8.90;8.00;;;1.80;99.90;;;;;;5092916;28;20218;-39
2020/12/31 04:22:34;;;;;;;8.90;8.02;;;1.80;99.90;;;;;;5093155;28;20203;-39
2020/12/31 04:25:01;;;;;;;7.03;6.07;;;1.80;99.90;;;;;;5092928;28;20749;-39
2020/12/31 04:27:28;;;;;;;6.95;6.25;;;1.90;99.90;;;;;;5093202;28;20321;-40
2020/12/31 04:29:55;;;;;;;8.57;7.10;;;1.90;99.90;;;;;;5092995;28;20222;-39
2020/12/31 04:32:22;;;;;;;11.35;7.65;;;1.90;99.90;;;;;;5092810;28;20228;-39
2020/12/31 04:34:49;;;;;;;8.77;7.93;;;2.00;99.90;;;;;;5092792;28;20747;-38
2020/12/31 04:37:16;;;;;;;9.20;8.25;;;1.90;99.90;;;;;;5092582;28;20242;-38
2020/12/31 04:39:44;;;;;;;8.68;7.63;;;2.00;99.90;;;;;;5092812;28;20389;-40
2020/12/31 04:42:11;;;;;;;7.37;6.63;;;2.00;99.90;;;;;;5092763;28;20297;-40
2020/12/31 04:44:38;;;;;;;7.32;6.47;;;2.00;99.90;;;;;;5092761;28;20412;-40
2020/12/31 04:47:05;;;;;;;7.93;7.13;;;2.00;99.90;;;;;;5092407;28;20585;-40
2020/12/31 04:49:44;;;;;;;9.35;7.55;;;1.90;99.90;;;;;;5092794;28;20260;-40
2020/12/31 04:52:11;;;;;;;8.13;7.28;;;1.90;99.90;;;;;;5092722;28;20216;-40
2020/12/31 04:54:40;;;;;;;9.75;7.53;;;1.90;99.90;;;;;;5092529;28;20297;-40
2020/12/31 04:57:08;;;;;;;22.00;11.45;;;1.80;99.90;;;;;;5092436;28;20207;-41
2020/12/31 04:59:36;;;;;;;9.50;8.10;;;1.80;99.90;;;;;;5092461;28;20294;-40
2020/12/31 05:02:05;;;;;;;12.15;9.85;;;1.70;99.90;;;;;;5092643;28;20249;-41
2020/12/31 05:04:32;;;;;;;10.10;8.20;;;1.70;99.90;;;;;;5092535;28;20207;-40
2020/12/31 05:06:59;;;;;;;9.03;8.07;;;1.70;99.90;;;;;;5092177;28;20214;-40
2020/12/31 05:09:27;;;;;;;10.05;8.30;;;1.60;99.90;;;;;;5092459;28;20242;-40
2020/12/31 05:11:55;;;;;;;10.35;8.50;;;1.60;99.90;;;;;;5092125;28;20238;-41
2020/12/31 05:14:30;;;;;;;11.32;9.35;;;1.60;99.90;;;;;;5092606;28;20269;-44
2020/12/31 05:17:12;;;;;;;12.43;11.13;;;1.60;99.90;;;;;;5092424;28;20233;-44
2020/12/31 05:19:39;;;;;;;11.48;9.68;;;1.60;99.90;;;;;;5091950;28;20214;-45
2020/12/31 05:22:11;;;;;;;13.00;9.10;;;1.50;99.90;;;;;;5092180;28;20207;-42
2020/12/31 05:24:40;;;;;;;8.90;7.78;;;1.50;99.90;;;;;;5092169;28;20301;-41
2020/12/31 05:27:22;;;;;;;11.02;9.38;;;1.50;99.90;;;;;;5092209;28;20206;-41
2020/12/31 05:30:01;;;;;;;15.25;9.93;;;1.50;99.90;;;;;;5092269;28;20219;-40
2020/12/31 05:32:29;;;;;;;25.53;17.63;;;1.50;99.90;;;;;;5092072;28;20294;-40
2020/12/31 05:34:58;;;;;;;12.20;8.93;;;1.40;99.90;;;;;;5091892;28;20202;-43
2020/12/31 05:37:27;;;;;;;10.10;8.70;;;1.40;99.90;;;;;;5093492;28;20232;-42
2020/12/31 05:40:05;;;;;;;12.77;9.00;;;1.30;99.90;;;;;;5092034;28;20759;-39
2020/12/31 05:42:35;;;;;;;12.35;9.63;;;1.40;99.90;;;;;;5092186;28;20250;-39
2020/12/31 05:45:10;;;;;;;17.05;12.38;;;1.40;99.90;;;;;;5092011;28;20213;-39
2020/12/31 05:47:44;;;;;;;9.65;8.63;;;1.40;99.90;;;;;;5092061;28;20226;-38
2020/12/31 05:50:21;;;;;;;11.38;8.30;;;1.30;99.90;;;;;;5092310;28;20312;-40
2020/12/31 05:52:49;;;;;;;7.90;7.10;;;1.30;99.90;;;;;;5091979;28;20206;-40
2020/12/31 05:55:17;;;;;;;9.98;8.98;;;1.30;99.90;;;;;;5091943;28;20293;-39
2020/12/31 05:57:46;;;;;;;9.38;8.40;;;1.30;99.90;;;;;;5091738;28;20245;-39
2020/12/31 06:00:20;;;;;;;11.50;9.60;;;1.30;99.90;;;;;;5091751;28;20210;-39
2020/12/31 06:02:49;;;;;;;12.75;11.32;;;1.30;99.90;;;;;;5092007;28;20238;-39
2020/12/31 06:05:18;;;;;;;10.75;9.48;;;1.20;99.90;;;;;;5091787;28;20214;-39
2020/12/31 06:07:47;;;;;;;11.13;9.32;;;1.20;99.90;;;;;;5091665;28;20243;-40
2020/12/31 06:10:19;;;;;;;27.60;23.83;;;1.20;99.90;;;;;;5091307;28;20325;-40
2020/12/31 06:20:12;;;;;;;12.95;9.52;;;1.10;99.90;;;;;;5091596;28;20186;-44
2020/12/31 06:23:03;;;;;;;9.43;8.52;;;1.10;99.90;;;;;;5091594;28;20207;-43
2020/12/31 06:25:44;;;;;;;7.50;6.80;;;1.00;99.90;;;;;;5091492;28;20660;-42
2020/12/31 06:28:13;;;;;;;9.33;7.57;;;1.10;99.90;;;;;;5091607;28;20233;-42
2020/12/31 06:30:42;;;;;;;8.65;7.68;;;1.10;99.90;;;;;;5091456;28;20225;-42
2020/12/31 06:33:24;;;;;;;9.95;8.93;;;1.10;99.90;;;;;;5095108;28;20290;-43
2020/12/31 06:35:57;;;;;;;10.23;8.48;;;1.10;99.90;;;;;;5095092;28;20266;-43
2020/12/31 06:38:32;;;;;;;9.27;8.38;;;1.10;99.90;;;;;;5095242;28;20234;-44
2020/12/31 06:40:59;;;;;;;8.45;6.80;;;1.10;99.90;;;;;;5095211;28;20296;-44
2020/12/31 06:43:37;;;;;;;8.97;8.03;;;1.10;99.90;;;;;;5095028;28;20298;-43
2020/12/31 06:46:18;;;;;;;9.83;8.80;;;1.10;99.90;;;;;;5095097;28;20210;-42
2020/12/31 06:48:50;;;;;;;10.03;9.03;;;1.00;99.90;;;;;;5094621;28;20761;-42
2020/12/31 06:51:24;;;;;;;9.10;8.02;;;0.90;99.90;;;;;;5094561;28;20289;-42
2020/12/31 06:53:52;;;;;;;8.93;7.78;;;0.90;99.90;;;;;;5094366;28;20219;-41
2020/12/31 06:56:45;;;;;;;8.50;7.65;;;0.90;99.90;;;;;;5094422;28;20210;-40
2020/12/31 06:59:32;;;;;;;11.70;10.37;;;1.00;99.90;;;;;;5094416;28;20207;-41
2020/12/31 07:02:00;;;;;;;16.47;14.50;;;1.00;99.90;;;;;;5094478;28;20578;-41
2020/12/31 07:04:32;;;;;;;24.90;22.30;;;1.00;99.90;;;;;;5094591;28;20214;-41
2020/12/31 07:07:01;;;;;;;13.55;12.15;;;1.00;99.90;;;;;;5094515;28;20648;-40
2020/12/31 07:09:31;;;;;;;15.37;13.27;;;0.90;99.90;;;;;;5094506;28;20222;-40
2020/12/31 07:12:03;;;;;;;13.20;11.27;;;0.90;99.90;;;;;;5094450;28;20778;-41
2020/12/31 07:14:31;;;;;;;11.80;10.55;;;1.00;99.90;;;;;;5094546;28;20206;-43
2020/12/31 07:17:04;;;;;;;14.48;11.48;;;0.90;99.90;;;;;;5094010;28;20207;-45
2020/12/31 07:19:39;;;;;;;11.00;9.17;;;0.90;99.90;;;;;;5094316;28;20683;-44
2020/12/31 07:22:18;;;;;;;9.75;8.75;;;1.00;99.90;;;;;;5094360;28;20242;-46
2020/12/31 07:24:51;;;;;;;10.77;9.40;;;1.00;99.90;;;;;;5094669;28;20553;-43
2020/12/31 07:27:23;;;;;;;10.33;9.33;;;1.10;99.90;;;;;;5094035;28;20374;-47
2020/12/31 07:30:18;;;;;;;9.82;8.82;;;1.20;99.90;;;;;;5094113;28;20234;-44
2020/12/31 07:32:56;;;;;;;9.47;8.53;;;1.20;99.90;;;;;;5069850;28;20228;-44
2020/12/31 07:35:29;;;;;;;8.77;7.87;;;1.20;99.90;;;;;;5094071;28;20211;-45
2020/12/31 07:37:58;;;;;;;9.85;8.35;;;1.20;99.90;;;;;;5093978;28;20289;-44
2020/12/31 07:40:40;;;;;;;9.47;8.53;;;1.30;99.90;;;;;;5094295;28;20564;-43
2020/12/31 07:43:08;;;;;;;9.33;8.43;;;1.20;99.90;;;;;;5093760;28;20234;-42
2020/12/31 07:45:36;;;;;;;8.90;8.02;;;1.30;99.90;;;;;;5093734;28;20297;-42
2020/12/31 07:48:04;;;;;;;9.48;8.55;;;1.30;99.90;;;;;;5093672;28;20314;-42
2020/12/31 07:50:31;;;;;;;11.30;8.82;;;1.30;99.90;;;;;;5093712;28;20313;-42
2020/12/31 07:53:00;;;;;;;10.05;9.05;;;1.30;99.90;;;;;;5093868;28;20230;-42
2020/12/31 07:55:27;;;;;;;11.63;10.35;;;1.30;99.90;;;;;;5093755;28;20271;-42
2020/12/31 07:57:54;;;;;;;11.50;10.40;;;1.40;99.90;;;;;;5093701;28;20203;-42
2020/12/31 08:00:22;;;;;;;11.60;10.40;;;1.40;99.90;;;;;;5093665;28;20293;-43
2020/12/31 08:02:51;;;;;;;10.93;9.53;;;1.50;99.90;;;;;;5093477;28;20673;-42
2020/12/31 08:05:20;;;;;;;10.80;9.77;;;1.50;99.90;;;;;;5093669;28;20302;-42
2020/12/31 08:07:51;;;;;;;10.57;9.47;;;1.50;99.90;;;;;;5093273;28;20226;-42
2020/12/31 08:10:32;;;;;;;9.93;8.93;;;1.60;99.90;;;;;;5093294;28;20300;-40
2020/12/31 08:13:01;;;;;;;10.02;8.80;;;1.70;99.90;;;;;;5093237;28;20229;-40
2020/12/31 08:15:28;;;;;;;10.02;8.15;;;1.80;99.90;;;;;;5093228;28;20232;-42
2020/12/31 08:17:57;;;;;;;9.07;8.03;;;1.80;99.90;;;;;;5093274;28;20297;-45
2020/12/31 08:20:25;;;;;;;8.57;7.67;;;1.80;99.90;;;;;;5092996;28;20242;-45
2020/12/31 08:22:54;;;;;;;10.95;9.43;;;1.90;99.90;;;;;;5092861;28;20257;-41
2020/12/31 08:25:24;;;;;;;12.23;9.60;;;1.90;99.90;;;;;;5092670;28;20238;-46
2020/12/31 08:27:55;;;;;;;12.57;10.27;;;1.90;99.90;;;;;;5092329;28;20222;-43
2020/12/31 08:30:22;;;;;;;10.57;9.03;;;2.00;99.90;;;;;;5092825;28;20238;-47
2020/12/31 08:32:55;;;;;;;8.90;8.03;;;2.00;99.90;;;;;;5092945;28;20246;-43
2020/12/31 08:35:24;;;;;;;9.23;8.33;;;2.10;99.90;;;;;;5092864;28;20256;-42
2020/12/31 08:38:10;;;;;;;8.97;8.03;;;2.20;99.90;;;;;;5092626;28;20209;-45
2020/12/31 08:40:46;;;;;;;9.47;8.17;;;2.30;99.90;;;;;;5092656;28;20679;-44
2020/12/31 08:43:22;;;;;;;10.73;9.07;;;2.40;99.90;;;;;;5093049;28;20210;-44
2020/12/31 08:45:50;;;;;;;15.93;11.07;;;2.50;99.90;;;;;;5092923;28;20293;-41
2020/12/31 08:48:22;;;;;;;14.23;9.30;;;2.60;99.90;;;;;;5092698;28;20317;-42
2020/12/31 08:51:00;;;;;;;13.80;9.70;;;2.70;99.90;;;;;;5092553;28;20668;-41
2020/12/31 08:53:27;;;;;;;11.80;9.75;;;2.80;99.90;;;;;;5092291;28;20573;-40
2020/12/31 08:55:55;;;;;;;11.97;8.80;;;2.90;99.90;;;;;;5092414;28;20298;-40
2020/12/31 08:58:28;;;;;;;9.83;7.47;;;3.00;99.90;;;;;;5092541;28;20639;-44
2020/12/31 09:00:55;;;;;;;11.13;8.75;;;3.10;99.90;;;;;;5092486;28;20249;-49
2020/12/31 09:03:24;;;;;;;9.05;7.82;;;3.20;99.90;;;;;;5092262;28;20230;-45
2020/12/31 09:05:55;;;;;;;9.23;8.07;;;3.30;99.90;;;;;;5091568;28;20206;-43
2020/12/31 09:08:22;;;;;;;10.32;8.57;;;3.30;99.90;;;;;;5092383;28;20313;-41
2020/12/31 09:10:59;;;;;;;9.43;8.10;;;3.40;99.90;;;;;;5092104;28;20334;-41
2020/12/31 09:13:27;;;;;;;8.38;7.55;;;3.40;99.90;;;;;;5092177;28;20294;-41
2020/12/31 09:16:13;;;;;;;9.98;8.45;;;3.50;99.90;;;;;;5092253;28;20287;-45
2020/12/31 09:18:41;;;;;;;9.93;7.53;;;3.70;99.90;;;;;;5092418;28;20298;-42
2020/12/31 09:21:09;;;;;;;9.82;6.32;;;3.90;99.90;;;;;;5092263;28;20297;-43
2020/12/31 09:23:37;;;;;;;10.18;7.43;;;4.00;99.90;;;;;;5092151;28;20217;-44
2020/12/31 09:26:26;;;;;;;7.83;6.87;;;4.20;99.90;;;;;;5092070;28;20210;-43
2020/12/31 09:28:54;;;;;;;9.20;6.45;;;4.20;99.90;;;;;;5092131;28;20241;-44
2020/12/31 09:31:25;;;;;;;8.07;6.65;;;4.20;99.90;;;;;;5092005;28;20297;-45
2020/12/31 09:33:52;;;;;;;8.30;7.13;;;4.20;99.90;;;;;;5092270;28;20302;-43
2020/12/31 09:36:21;;;;;;;10.75;8.02;;;4.20;99.90;;;;;;5091875;28;20573;-47
2020/12/31 09:38:48;;;;;;;7.70;6.95;;;4.20;99.90;;;;;;5091944;28;20633;-45
2020/12/31 09:41:15;;;;;;;9.93;7.15;;;4.20;99.90;;;;;;5092219;28;20621;-44
2020/12/31 09:43:42;;;;;;;9.00;6.60;;;4.20;99.90;;;;;;5092079;28;20303;-43
2020/12/31 09:46:11;;;;;;;7.90;5.93;;;4.30;99.90;;;;;;5091985;28;20302;-45
2020/12/31 09:48:38;;;;;;;9.07;7.70;;;4.30;99.90;;;;;;5091639;28;20224;-47
2020/12/31 09:51:05;;;;;;;8.45;6.65;;;4.40;99.90;;;;;;5091784;28;20293;-43
2020/12/31 09:53:32;;;;;;;8.02;6.07;;;4.50;99.90;;;;;;5092175;28;20400;-44
2020/12/31 09:55:59;;;;;;;6.75;5.80;;;4.60;99.90;;;;;;5091827;28;20749;-43
2020/12/31 09:58:26;;;;;;;8.15;5.55;;;4.70;99.90;;;;;;5091704;28;20724;-44
2020/12/31 10:00:53;;;;;;;8.67;5.73;;;4.80;99.90;;;;;;5091750;28;20257;-47
2020/12/31 10:03:20;;;;;;;7.03;5.75;;;5.00;99.90;;;;;;5091613;28;20294;-45
2020/12/31 10:05:47;;;;;;;5.57;5.03;;;5.10;99.90;;;;;;5093561;28;20206;-47
2020/12/31 10:08:14;;;;;;;5.47;4.97;;;5.20;99.90;;;;;;5095789;28;20321;-44
2020/12/31 10:10:41;;;;;;;5.70;5.20;;;5.30;99.90;;;;;;5095429;28;20238;-44
2020/12/31 10:13:08;;;;;;;4.88;4.47;;;5.40;99.90;;;;;;5095603;28;20209;-44
2020/12/31 10:15:35;;;;;;;6.13;5.15;;;5.40;99.70;;;;;;5095537;28;20645;-44
2020/12/31 10:18:02;;;;;;;7.88;5.65;;;5.40;99.60;;;;;;5095473;28;20217;-44
2020/12/31 10:20:30;;;;;;;12.43;6.57;;;5.40;99.40;;;;;;5095279;28;20306;-44
2020/12/31 10:22:57;;;;;;;7.03;4.78;;;5.50;99.30;;;;;;5095423;28;20700;-46
2020/12/31 10:25:24;;;;;;;4.60;4.10;;;5.50;99.00;;;;;;5095412;28;20379;-44
2020/12/31 10:27:51;;;;;;;5.38;4.88;;;5.50;98.90;;;;;;5095424;28;20279;-45
2020/12/31 10:30:18;;;;;;;18.88;13.38;;;5.50;98.90;;;;;;5095310;28;20429;-43
2020/12/31 10:32:45;;;;;;;4.63;4.13;;;5.50;98.90;;;;;;5094847;28;20621;-44
2020/12/31 10:35:12;;;;;;;5.47;4.00;;;5.50;98.70;;;;;;5094963;28;20242;-42
2020/12/31 10:37:41;;;;;;;5.30;4.40;;;5.60;98.70;;;;;;5095307;28;20229;-43
2020/12/31 10:40:08;;;;;;;6.20;4.65;;;5.60;98.50;;;;;;5095212;28;20210;-44
2020/12/31 10:42:35;;;;;;;6.07;4.70;;;5.60;98.50;;;;;;5095335;28;20568;-42
2020/12/31 10:45:02;;;;;;;5.97;4.73;;;5.60;98.50;;;;;;5095157;28;20301;-43
2020/12/31 10:47:29;;;;;;;6.13;5.53;;;5.70;98.40;;;;;;5094781;28;20310;-42
2020/12/31 10:49:56;;;;;;;5.72;4.60;;;5.70;98.40;;;;;;5094725;28;20236;-42
2020/12/31 10:52:23;;;;;;;7.10;4.97;;;5.70;98.40;;;;;;5094981;28;20322;-44
2020/12/31 10:54:51;;;;;;;4.40;3.40;;;5.80;98.30;;;;;;5094681;28;20238;-42
2020/12/31 10:57:18;;;;;;;8.63;6.70;;;5.90;98.10;;;;;;5094825;28;20288;-42
2020/12/31 10:59:45;;;;;;;4.05;3.65;;;6.00;98.10;;;;;;5094626;28;20280;-42
2020/12/31 11:02:12;;;;;;;6.85;4.28;;;6.00;97.90;;;;;;5094915;28;20657;-43
2020/12/31 11:04:39;;;;;;;4.95;3.45;;;6.10;97.80;;;;;;5094413;28;20285;-45
2020/12/31 11:07:06;;;;;;;4.03;3.30;;;6.10;97.60;;;;;;5094745;28;20237;-43
2020/12/31 11:09:33;;;;;;;4.47;3.28;;;6.10;97.80;;;;;;5094337;28;20280;-42
2020/12/31 11:12:02;;;;;;;3.22;3.00;;;6.10;97.60;;;;;;5094240;28;20266;-42
2020/12/31 11:14:29;;;;;;;5.80;5.20;;;6.10;97.50;;;;;;5094095;28;20712;-42
2020/12/31 11:16:56;;;;;;;3.25;2.85;;;6.00;97.40;;;;;;5093517;28;20737;-43
2020/12/31 11:19:24;;;;;;;4.10;3.38;;;6.00;97.20;;;;;;5094394;28;20301;-43
2020/12/31 11:21:51;;;;;;;3.97;3.08;;;6.10;97.30;;;;;;5094330;28;20242;-46
2020/12/31 11:24:18;;;;;;;3.00;2.70;;;6.10;97.20;;;;;;5093919;28;20657;-42
2020/12/31 11:26:45;;;;;;;3.08;2.88;;;6.20;97.10;;;;;;5093930;28;20209;-42
2020/12/31 11:29:13;;;;;;;3.15;2.85;;;6.20;96.80;;;;;;5093586;28;20233;-42
2020/12/31 11:31:40;;;;;;;3.67;3.35;;;6.20;96.80;;;;;;5094250;28;20232;-42
2020/12/31 11:34:16;;;;;;;2.72;2.53;;;6.30;96.70;;;;;;5094236;28;20283;-41
2020/12/31 11:36:43;;;;;;;5.15;3.28;;;6.30;96.70;;;;;;5093860;28;20219;-45
2020/12/31 11:39:10;;;;;;;3.95;3.65;;;6.30;96.70;;;;;;5093984;28;20230;-43
2020/12/31 11:41:37;;;;;;;4.22;3.83;;;6.40;96.60;;;;;;5093611;28;20214;-43
2020/12/31 11:44:06;;;;;;;3.03;2.60;;;6.50;96.50;;;;;;5093465;28;20336;-43
2020/12/31 11:46:34;;;;;;;2.60;2.40;;;6.50;96.30;;;;;;5093415;28;20618;-42
2020/12/31 11:49:01;;;;;;;2.60;2.40;;;6.60;96.30;;;;;;5093505;28;20265;-42
2020/12/31 11:51:28;;;;;;;3.10;2.70;;;6.50;96.20;;;;;;5094021;28;20677;-42
2020/12/31 11:53:57;;;;;;;3.42;2.90;;;6.60;95.90;;;;;;5093745;28;20293;-44
2020/12/31 11:56:24;;;;;;;5.10;2.78;;;6.60;96.00;;;;;;5093564;28;20207;-43
2020/12/31 11:58:51;;;;;;;3.92;3.22;;;6.80;95.70;;;;;;5093632;28;20207;-42
2020/12/31 12:01:18;;;;;;;9.35;7.22;;;6.80;95.60;;;;;;5093722;28;20238;-42
2020/12/31 12:03:46;;;;;;;2.60;2.40;;;6.90;95.40;;;;;;5093474;28;20214;-42
2020/12/31 12:06:13;;;;;;;2.90;2.20;;;6.90;95.10;;;;;;5093383;28;20250;-42
2020/12/31 12:08:41;;;;;;;3.10;2.05;;;6.90;95.00;;;;;;5093229;28;20313;-42
2020/12/31 12:11:08;;;;;;;4.10;3.67;;;6.90;94.70;;;;;;5093215;28;20310;-42
2020/12/31 12:13:35;;;;;;;4.28;3.80;;;7.00;94.60;;;;;;5093419;28;20229;-42
2020/12/31 12:16:02;;;;;;;6.53;3.35;;;7.10;94.40;;;;;;5093432;28;20744;-43
2020/12/31 12:18:29;;;;;;;3.30;2.70;;;7.10;94.10;;;;;;5093078;28;20294;-43
2020/12/31 12:21:02;;;;;;;3.55;2.97;;;7.10;93.70;;;;;;5093308;28;20297;-42
2020/12/31 12:23:29;;;;;;;4.47;3.97;;;7.10;93.60;;;;;;5093300;28;20260;-47
2020/12/31 12:25:56;;;;;;;3.67;2.97;;;7.10;93.40;;;;;;5093081;28;20214;-46
2020/12/31 12:28:23;;;;;;;3.88;3.00;;;7.20;93.30;;;;;;5092396;28;20297;-43
2020/12/31 12:30:50;;;;;;;4.75;2.63;;;7.20;93.00;;;;;;5092793;28;20211;-42
2020/12/31 12:33:17;;;;;;;3.22;2.08;;;7.30;93.00;;;;;;5092870;28;20267;-42
2020/12/31 12:35:44;;;;;;;2.92;2.47;;;7.30;92.70;;;;;;5092767;28;20217;-46
2020/12/31 12:38:12;;;;;;;4.18;2.22;;;7.30;92.60;;;;;;5093098;28;20211;-44
2020/12/31 12:40:39;;;;;;;3.40;2.47;;;7.30;92.20;;;;;;5092675;28;20691;-44
2020/12/31 12:43:05;;;;;;;3.25;2.45;;;7.30;92.20;;;;;;5092986;28;20672;-43
2020/12/31 12:45:32;;;;;;;2.22;2.03;;;7.20;92.30;;;;;;5092747;28;20581;-45
2020/12/31 12:47:59;;;;;;;3.97;3.30;;;7.20;92.10;;;;;;5092599;28;20668;-45
2020/12/31 12:50:26;;;;;;;2.80;2.53;;;7.10;91.90;;;;;;5092599;28;20258;-44
2020/12/31 12:52:54;;;;;;;5.38;3.28;;;7.10;92.30;;;;;;5092865;28;20297;-42
2020/12/31 12:55:22;;;;;;;3.25;2.47;;;7.00;92.30;;;;;;5092702;28;20265;-40
2020/12/31 12:57:49;;;;;;;2.65;2.28;;;7.00;92.20;;;;;;5092402;28;20206;-44
2020/12/31 13:00:17;;;;;;;3.53;3.15;;;7.00;92.00;;;;;;5092508;28;20286;-43
2020/12/31 13:02:45;;;;;;;5.22;2.40;;;7.00;91.90;;;;;;5092400;28;20242;-43
2020/12/31 13:05:13;;;;;;;3.17;2.50;;;7.10;91.70;;;;;;5092335;28;20238;-43
2020/12/31 13:07:40;;;;;;;4.68;2.38;;;7.20;91.60;;;;;;5092338;28;20660;-46
2020/12/31 13:10:08;;;;;;;3.13;2.65;;;7.30;91.80;;;;;;5092059;28;20331;-41